IBB4932 LPMA-LPPS
Flight info
| Callsign | IBB4932 |
|---|---|
| Flight time | 0h 13m |
| Altitude | 8000 |
| Route | MARCU |
| Aircraft | CRJX/M-SDFGIRWY/S |
Departure
| Time | 2026-05-06 22:47 |
|---|---|
| Airport | Cristiano Ronaldo International Airport (LPMA) |
Arrival
| Time | 2026-05-06 23:00 |
|---|---|
| Airport | Porto Santo Airport (LPPS) |
| Time | Latitude | Longitude | Altitude | Speed | Heading |
|---|---|---|---|---|---|
| 2026-05-06 22:27 | 32.69389 | -16.77631 | 167 ft | 0 kts | 138° |
| 2026-05-06 22:40 | 32.69406 | -16.77647 | 167 ft | 4 kts | 149° |
| 2026-05-06 22:41 | 32.69454 | -16.77651 | 167 ft | 4 kts | 216° |
| 2026-05-06 22:41 | 32.69463 | -16.77641 | 167 ft | 1 kts | 226° |
| 2026-05-06 22:41 | 32.69464 | -16.77640 | 167 ft | 0 kts | 226° |
| 2026-05-06 22:43 | 32.69462 | -16.77642 | 167 ft | 3 kts | 226° |
| 2026-05-06 22:43 | 32.69398 | -16.77721 | 167 ft | 19 kts | 226° |
| 2026-05-06 22:44 | 32.69298 | -16.77854 | 167 ft | 21 kts | 244° |
| 2026-05-06 22:44 | 32.69285 | -16.78014 | 167 ft | 19 kts | 255° |
| 2026-05-06 22:44 | 32.69200 | -16.78134 | 163 ft | 20 kts | 223° |
| 2026-05-06 22:44 | 32.69079 | -16.78275 | 156 ft | 29 kts | 225° |
| 2026-05-06 22:45 | 32.68924 | -16.78405 | 152 ft | 14 kts | 196° |
| 2026-05-06 22:45 | 32.68893 | -16.78437 | 152 ft | 5 kts | 268° |
| 2026-05-06 22:45 | 32.68907 | -16.78459 | 152 ft | 0 kts | 343° |
| 2026-05-06 22:45 | 32.68948 | -16.78436 | 152 ft | 9 kts | 47° |
| 2026-05-06 22:46 | 32.68994 | -16.78377 | 152 ft | 10 kts | 46° |
| 2026-05-06 22:46 | 32.69014 | -16.78352 | 153 ft | 0 kts | 47° |
| 2026-05-06 22:46 | 32.69072 | -16.78282 | 156 ft | 41 kts | 44° |
| 2026-05-06 22:46 | 32.69459 | -16.77832 | 170 ft | 112 kts | 44° |
| 2026-05-06 22:47 | 32.70155 | -16.77015 | 218 ft | 163 kts | 44° |
| 2026-05-06 22:47 | 32.70942 | -16.75994 | 862 ft | 171 kts | 47° |
| 2026-05-06 22:47 | 32.71600 | -16.74785 | 1616 ft | 185 kts | 63° |
| 2026-05-06 22:47 | 32.72005 | -16.73121 | 1531 ft | 238 kts | 80° |
| 2026-05-06 22:48 | 32.71908 | -16.70950 | 1254 ft | 293 kts | 101° |
| 2026-05-06 22:48 | 32.71215 | -16.68652 | 2054 ft | 283 kts | 110° |
| 2026-05-06 22:48 | 32.70479 | -16.66724 | 2786 ft | 242 kts | 111° |
| 2026-05-06 22:48 | 32.69757 | -16.64995 | 2970 ft | 228 kts | 114° |
| 2026-05-06 22:49 | 32.68954 | -16.63374 | 3254 ft | 229 kts | 120° |
| 2026-05-06 22:49 | 32.67905 | -16.61810 | 3044 ft | 253 kts | 130° |
| 2026-05-06 22:49 | 32.66777 | -16.60199 | 3240 ft | 251 kts | 121° |
| 2026-05-06 22:49 | 32.65869 | -16.58437 | 3467 ft | 251 kts | 115° |
| 2026-05-06 22:50 | 32.65049 | -16.56634 | 3840 ft | 243 kts | 116° |
| 2026-05-06 22:50 | 32.64185 | -16.54929 | 4170 ft | 241 kts | 121° |
| 2026-05-06 22:50 | 32.63167 | -16.53308 | 4229 ft | 248 kts | 118° |
| 2026-05-06 22:50 | 32.62759 | -16.51286 | 3602 ft | 270 kts | 77° |
| 2026-05-06 22:51 | 32.63554 | -16.49351 | 3790 ft | 239 kts | 41° |
| 2026-05-06 22:51 | 32.64700 | -16.48388 | 5121 ft | 193 kts | 28° |
| 2026-05-06 22:51 | 32.64947 | -16.48200 | 5200 ft | 194 kts | 31° |
| 2026-05-06 22:51 | 32.65663 | -16.47614 | 5373 ft | 200 kts | 31° |
| 2026-05-06 22:52 | 32.66823 | -16.46683 | 5767 ft | 201 kts | 32° |
| 2026-05-06 22:52 | 32.67990 | -16.45644 | 5767 ft | 224 kts | 35° |
| 2026-05-06 22:52 | 32.69194 | -16.44457 | 6241 ft | 218 kts | 38° |
| 2026-05-06 22:52 | 32.70437 | -16.43284 | 6235 ft | 240 kts | 34° |
| 2026-05-06 22:53 | 32.71851 | -16.41997 | 5751 ft | 278 kts | 36° |
| 2026-05-06 22:53 | 32.73347 | -16.40441 | 5840 ft | 290 kts | 39° |
| 2026-05-06 22:53 | 32.74872 | -16.38832 | 5924 ft | 297 kts | 37° |
| 2026-05-06 22:53 | 32.76570 | -16.37661 | 5894 ft | 271 kts | 20° |
| 2026-05-06 22:54 | 32.78239 | -16.36825 | 5868 ft | 249 kts | 20° |
| 2026-05-06 22:54 | 32.79797 | -16.36077 | 5804 ft | 236 kts | 19° |
| 2026-05-06 22:54 | 32.81299 | -16.35364 | 5566 ft | 231 kts | 18° |
| 2026-05-06 22:54 | 32.82798 | -16.34665 | 5228 ft | 231 kts | 19° |
| 2026-05-06 22:55 | 32.84298 | -16.33993 | 4915 ft | 230 kts | 19° |
| 2026-05-06 22:55 | 32.85857 | -16.33727 | 4554 ft | 227 kts | 354° |
| 2026-05-06 22:55 | 32.87418 | -16.33972 | 4247 ft | 225 kts | 352° |
| 2026-05-06 22:55 | 32.88962 | -16.34212 | 3933 ft | 223 kts | 353° |
| 2026-05-06 22:56 | 32.90500 | -16.34443 | 3614 ft | 222 kts | 353° |
| 2026-05-06 22:56 | 32.92029 | -16.34684 | 3317 ft | 220 kts | 352° |
| 2026-05-06 22:56 | 32.93544 | -16.34894 | 2878 ft | 220 kts | 356° |
| 2026-05-06 22:56 | 32.94894 | -16.34894 | 2879 ft | 166 kts | 2° |
| 2026-05-06 22:57 | 32.95955 | -16.34812 | 2603 ft | 149 kts | 4° |
| 2026-05-06 22:57 | 32.96976 | -16.34719 | 2214 ft | 145 kts | 4° |
| 2026-05-06 22:57 | 32.97971 | -16.34666 | 1877 ft | 146 kts | 2° |
| 2026-05-06 22:57 | 32.98981 | -16.34667 | 1662 ft | 144 kts | 1° |
| 2026-05-06 22:58 | 32.99974 | -16.34705 | 1470 ft | 143 kts | 356° |
| 2026-05-06 22:58 | 33.00963 | -16.34790 | 1305 ft | 140 kts | 357° |
| 2026-05-06 22:58 | 33.01928 | -16.34851 | 1086 ft | 135 kts | 360° |
| 2026-05-06 22:58 | 33.02857 | -16.34837 | 753 ft | 137 kts | 1° |
| 2026-05-06 22:59 | 33.03823 | -16.34871 | 661 ft | 142 kts | 359° |
| 2026-05-06 22:59 | 33.04809 | -16.34892 | 469 ft | 140 kts | 359° |
| 2026-05-06 22:59 | 33.05735 | -16.34932 | 282 ft | 127 kts | 357° |
| 2026-05-06 22:59 | 33.06523 | -16.34963 | 251 ft | 93 kts | 358° |
| 2026-05-06 23:00 | 33.07008 | -16.34980 | 271 ft | 50 kts | 359° |
| 2026-05-06 23:00 | 33.07284 | -16.34994 | 282 ft | 37 kts | 2° |
| 2026-05-06 23:00 | 33.07407 | -16.34998 | 284 ft | 2 kts | 302° |
| 2026-05-06 23:00 | 33.07407 | -16.34999 | 284 ft | 0 kts | 293° |
| 2026-05-06 23:01 | 33.07408 | -16.35002 | 287 ft | 0 kts | 279° |
| 2026-05-06 23:02 | 33.07407 | -16.35004 | 287 ft | 0 kts | 254° |
| 2026-05-06 23:02 | 33.07405 | -16.35005 | 287 ft | 0 kts | 201° |
| 2026-05-06 23:02 | 33.07313 | -16.35000 | 283 ft | 24 kts | 178° |
| 2026-05-06 23:02 | 33.07099 | -16.34989 | 274 ft | 36 kts | 177° |
| 2026-05-06 23:03 | 33.06961 | -16.34918 | 269 ft | 13 kts | 90° |
| 2026-05-06 23:03 | 33.06964 | -16.34823 | 268 ft | 10 kts | 86° |
| 2026-05-06 23:03 | 33.06968 | -16.34740 | 268 ft | 10 kts | 87° |
| 2026-05-06 23:03 | 33.06972 | -16.34656 | 268 ft | 10 kts | 85° |
| 2026-05-06 23:04 | 33.06976 | -16.34635 | 268 ft | 1 kts | 50° |
| 2026-05-06 23:04 | 33.06983 | -16.34633 | 269 ft | 2 kts | 3° |
| 2026-05-06 23:04 | 33.06990 | -16.34636 | 269 ft | 0 kts | 321° |
| 2026-05-06 23:04 | 33.06995 | -16.34647 | 269 ft | 0 kts | 279° |